sensor_id;sensor_type;location;lat;lon;timestamp;P1;durP1;ratioP1;P2;durP2;ratioP2
19482;SDS011;9882;51.166;6.992;2023-09-19T00:01:22;5.13;;;2.35;;
19482;SDS011;9882;51.166;6.992;2023-09-19T00:03:51;7.32;;;2.38;;
19482;SDS011;9882;51.166;6.992;2023-09-19T00:06:20;11.98;;;3.30;;
19482;SDS011;9882;51.166;6.992;2023-09-19T00:08:52;7.00;;;2.58;;
19482;SDS011;9882;51.166;6.992;2023-09-19T00:11:21;8.63;;;2.63;;
19482;SDS011;9882;51.166;6.992;2023-09-19T00:13:54;14.25;;;2.75;;
19482;SDS011;9882;51.166;6.992;2023-09-19T00:16:26;6.65;;;2.28;;
19482;SDS011;9882;51.166;6.992;2023-09-19T00:18:55;4.90;;;2.55;;
19482;SDS011;9882;51.166;6.992;2023-09-19T00:21:25;6.78;;;2.60;;
19482;SDS011;9882;51.166;6.992;2023-09-19T00:23:55;10.52;;;2.35;;
19482;SDS011;9882;51.166;6.992;2023-09-19T00:26:24;10.27;;;2.97;;
19482;SDS011;9882;51.166;6.992;2023-09-19T00:28:55;6.65;;;2.72;;
19482;SDS011;9882;51.166;6.992;2023-09-19T00:31:24;5.22;;;2.47;;
19482;SDS011;9882;51.166;6.992;2023-09-19T00:33:53;5.03;;;2.40;;
19482;SDS011;9882;51.166;6.992;2023-09-19T00:36:25;5.50;;;2.40;;
19482;SDS011;9882;51.166;6.992;2023-09-19T00:38:54;8.05;;;2.92;;
19482;SDS011;9882;51.166;6.992;2023-09-19T00:41:23;11.63;;;2.78;;
19482;SDS011;9882;51.166;6.992;2023-09-19T00:43:55;5.80;;;2.55;;
19482;SDS011;9882;51.166;6.992;2023-09-19T00:46:24;11.15;;;3.10;;
19482;SDS011;9882;51.166;6.992;2023-09-19T00:48:53;12.75;;;2.50;;
19482;SDS011;9882;51.166;6.992;2023-09-19T00:51:24;8.40;;;2.80;;
19482;SDS011;9882;51.166;6.992;2023-09-19T00:53:55;13.68;;;2.90;;
19482;SDS011;9882;51.166;6.992;2023-09-19T00:56:26;10.57;;;3.08;;
19482;SDS011;9882;51.166;6.992;2023-09-19T00:58:57;13.73;;;2.72;;
19482;SDS011;9882;51.166;6.992;2023-09-19T01:01:27;13.93;;;3.13;;
19482;SDS011;9882;51.166;6.992;2023-09-19T01:03:56;9.52;;;2.70;;
19482;SDS011;9882;51.166;6.992;2023-09-19T01:06:26;13.35;;;3.00;;
19482;SDS011;9882;51.166;6.992;2023-09-19T01:08:55;8.30;;;2.60;;
19482;SDS011;9882;51.166;6.992;2023-09-19T01:11:26;4.88;;;2.47;;
19482;SDS011;9882;51.166;6.992;2023-09-19T01:14:06;6.25;;;2.20;;
19482;SDS011;9882;51.166;6.992;2023-09-19T01:16:50;7.07;;;2.45;;
19482;SDS011;9882;51.166;6.992;2023-09-19T01:19:42;8.02;;;2.50;;
19482;SDS011;9882;51.166;6.992;2023-09-19T01:22:42;11.43;;;2.90;;
19482;SDS011;9882;51.166;6.992;2023-09-19T01:25:41;15.30;;;2.67;;
19482;SDS011;9882;51.166;6.992;2023-09-19T01:28:30;7.50;;;2.85;;
19482;SDS011;9882;51.166;6.992;2023-09-19T01:31:06;6.93;;;2.80;;
19482;SDS011;9882;51.166;6.992;2023-09-19T01:36:30;8.63;;;2.55;;
19482;SDS011;9882;51.166;6.992;2023-09-19T01:39:03;5.40;;;2.33;;
19482;SDS011;9882;51.166;6.992;2023-09-19T01:41:43;7.03;;;2.55;;
19482;SDS011;9882;51.166;6.992;2023-09-19T01:44:22;10.18;;;2.60;;
19482;SDS011;9882;51.166;6.992;2023-09-19T01:46:58;5.15;;;2.50;;
19482;SDS011;9882;51.166;6.992;2023-09-19T01:49:33;8.93;;;2.80;;
19482;SDS011;9882;51.166;6.992;2023-09-19T01:52:13;15.15;;;3.30;;
19482;SDS011;9882;51.166;6.992;2023-09-19T01:54:46;12.00;;;2.83;;
19482;SDS011;9882;51.166;6.992;2023-09-19T01:57:20;6.70;;;2.45;;
19482;SDS011;9882;51.166;6.992;2023-09-19T01:59:57;11.90;;;2.92;;
19482;SDS011;9882;51.166;6.992;2023-09-19T02:02:40;8.70;;;2.92;;
19482;SDS011;9882;51.166;6.992;2023-09-19T02:05:12;9.00;;;3.03;;
19482;SDS011;9882;51.166;6.992;2023-09-19T02:07:50;7.18;;;2.75;;
19482;SDS011;9882;51.166;6.992;2023-09-19T02:10:19;8.90;;;2.90;;
19482;SDS011;9882;51.166;6.992;2023-09-19T02:12:49;11.45;;;3.38;;
19482;SDS011;9882;51.166;6.992;2023-09-19T02:15:18;7.20;;;3.05;;
19482;SDS011;9882;51.166;6.992;2023-09-19T02:17:50;7.05;;;2.95;;
19482;SDS011;9882;51.166;6.992;2023-09-19T02:20:20;10.15;;;3.35;;
19482;SDS011;9882;51.166;6.992;2023-09-19T02:22:49;14.00;;;2.92;;
19482;SDS011;9882;51.166;6.992;2023-09-19T02:25:19;11.30;;;2.95;;
19482;SDS011;9882;51.166;6.992;2023-09-19T02:27:48;12.70;;;2.83;;
19482;SDS011;9882;51.166;6.992;2023-09-19T02:30:19;12.68;;;2.85;;
19482;SDS011;9882;51.166;6.992;2023-09-19T02:32:54;9.70;;;2.58;;
19482;SDS011;9882;51.166;6.992;2023-09-19T02:35:23;10.18;;;2.85;;
19482;SDS011;9882;51.166;6.992;2023-09-19T02:37:53;10.10;;;2.80;;
19482;SDS011;9882;51.166;6.992;2023-09-19T02:40:22;10.98;;;2.72;;
19482;SDS011;9882;51.166;6.992;2023-09-19T02:42:53;8.45;;;2.72;;
19482;SDS011;9882;51.166;6.992;2023-09-19T02:45:26;10.02;;;2.80;;
19482;SDS011;9882;51.166;6.992;2023-09-19T02:47:58;7.13;;;2.70;;
19482;SDS011;9882;51.166;6.992;2023-09-19T02:50:30;6.63;;;2.58;;
19482;SDS011;9882;51.166;6.992;2023-09-19T02:53:01;13.77;;;2.63;;
19482;SDS011;9882;51.166;6.992;2023-09-19T02:55:30;12.05;;;2.70;;
19482;SDS011;9882;51.166;6.992;2023-09-19T02:58:00;6.53;;;2.47;;
19482;SDS011;9882;51.166;6.992;2023-09-19T03:00:29;10.48;;;2.78;;
19482;SDS011;9882;51.166;6.992;2023-09-19T03:03:00;11.70;;;3.03;;
19482;SDS011;9882;51.166;6.992;2023-09-19T03:05:29;19.95;;;3.50;;
19482;SDS011;9882;51.166;6.992;2023-09-19T03:07:59;13.25;;;3.00;;
19482;SDS011;9882;51.166;6.992;2023-09-19T03:10:30;11.93;;;2.92;;
19482;SDS011;9882;51.166;6.992;2023-09-19T03:12:59;12.40;;;2.80;;
19482;SDS011;9882;51.166;6.992;2023-09-19T03:15:29;10.43;;;2.65;;
19482;SDS011;9882;51.166;6.992;2023-09-19T03:18:00;7.03;;;2.63;;
19482;SDS011;9882;51.166;6.992;2023-09-19T03:20:30;7.63;;;2.30;;
19482;SDS011;9882;51.166;6.992;2023-09-19T03:22:59;5.15;;;2.30;;
19482;SDS011;9882;51.166;6.992;2023-09-19T03:25:29;10.60;;;2.63;;
19482;SDS011;9882;51.166;6.992;2023-09-19T03:27:59;15.55;;;3.22;;
19482;SDS011;9882;51.166;6.992;2023-09-19T03:30:30;8.77;;;2.50;;
19482;SDS011;9882;51.166;6.992;2023-09-19T03:33:05;4.80;;;2.45;;
19482;SDS011;9882;51.166;6.992;2023-09-19T03:35:35;9.75;;;2.55;;
19482;SDS011;9882;51.166;6.992;2023-09-19T03:38:05;7.70;;;2.85;;
19482;SDS011;9882;51.166;6.992;2023-09-19T03:40:34;9.10;;;2.83;;
19482;SDS011;9882;51.166;6.992;2023-09-19T03:43:05;6.90;;;2.58;;
19482;SDS011;9882;51.166;6.992;2023-09-19T03:45:34;14.35;;;2.78;;
19482;SDS011;9882;51.166;6.992;2023-09-19T03:48:09;7.18;;;2.63;;
19482;SDS011;9882;51.166;6.992;2023-09-19T03:50:38;14.48;;;3.35;;
19482;SDS011;9882;51.166;6.992;2023-09-19T03:53:07;10.10;;;2.72;;
19482;SDS011;9882;51.166;6.992;2023-09-19T03:55:37;14.52;;;3.00;;
19482;SDS011;9882;51.166;6.992;2023-09-19T03:58:06;9.50;;;2.63;;
19482;SDS011;9882;51.166;6.992;2023-09-19T04:00:35;15.35;;;2.25;;
19482;SDS011;9882;51.166;6.992;2023-09-19T04:03:05;9.00;;;3.03;;
19482;SDS011;9882;51.166;6.992;2023-09-19T04:05:36;10.43;;;2.90;;
19482;SDS011;9882;51.166;6.992;2023-09-19T04:08:07;6.20;;;2.40;;
19482;SDS011;9882;51.166;6.992;2023-09-19T04:10:37;5.03;;;2.58;;
19482;SDS011;9882;51.166;6.992;2023-09-19T04:13:06;8.98;;;3.00;;
19482;SDS011;9882;51.166;6.992;2023-09-19T04:15:35;8.10;;;3.00;;
19482;SDS011;9882;51.166;6.992;2023-09-19T04:18:04;9.60;;;2.72;;
19482;SDS011;9882;51.166;6.992;2023-09-19T04:20:34;18.20;;;2.78;;
19482;SDS011;9882;51.166;6.992;2023-09-19T04:23:06;11.98;;;2.88;;
19482;SDS011;9882;51.166;6.992;2023-09-19T04:25:36;7.13;;;2.78;;
19482;SDS011;9882;51.166;6.992;2023-09-19T04:28:06;10.80;;;3.22;;
19482;SDS011;9882;51.166;6.992;2023-09-19T04:30:36;10.23;;;2.92;;
19482;SDS011;9882;51.166;6.992;2023-09-19T04:33:07;6.20;;;2.60;;
19482;SDS011;9882;51.166;6.992;2023-09-19T04:35:36;10.70;;;2.42;;
19482;SDS011;9882;51.166;6.992;2023-09-19T04:38:07;13.55;;;3.00;;
19482;SDS011;9882;51.166;6.992;2023-09-19T04:40:37;16.15;;;2.83;;
19482;SDS011;9882;51.166;6.992;2023-09-19T04:43:07;16.42;;;3.10;;
19482;SDS011;9882;51.166;6.992;2023-09-19T04:45:42;8.57;;;2.90;;
19482;SDS011;9882;51.166;6.992;2023-09-19T04:48:15;5.05;;;2.47;;
19482;SDS011;9882;51.166;6.992;2023-09-19T04:50:45;15.45;;;3.10;;
19482;SDS011;9882;51.166;6.992;2023-09-19T04:53:16;7.80;;;2.83;;
19482;SDS011;9882;51.166;6.992;2023-09-19T04:55:49;17.27;;;3.28;;
19482;SDS011;9882;51.166;6.992;2023-09-19T04:58:20;5.38;;;2.15;;
19482;SDS011;9882;51.166;6.992;2023-09-19T05:00:49;8.77;;;2.28;;
19482;SDS011;9882;51.166;6.992;2023-09-19T05:03:19;7.65;;;2.75;;
19482;SDS011;9882;51.166;6.992;2023-09-19T05:05:49;10.52;;;2.83;;
19482;SDS011;9882;51.166;6.992;2023-09-19T05:08:20;10.80;;;3.00;;
19482;SDS011;9882;51.166;6.992;2023-09-19T05:10:52;7.65;;;2.65;;
19482;SDS011;9882;51.166;6.992;2023-09-19T05:13:25;4.60;;;2.35;;
19482;SDS011;9882;51.166;6.992;2023-09-19T05:15:54;8.70;;;2.80;;
19482;SDS011;9882;51.166;6.992;2023-09-19T05:18:23;16.05;;;3.67;;
19482;SDS011;9882;51.166;6.992;2023-09-19T05:20:52;8.32;;;2.63;;
19482;SDS011;9882;51.166;6.992;2023-09-19T05:23:23;31.17;;;3.30;;
19482;SDS011;9882;51.166;6.992;2023-09-19T05:25:54;4.20;;;2.15;;
19482;SDS011;9882;51.166;6.992;2023-09-19T05:28:25;15.25;;;3.15;;
19482;SDS011;9882;51.166;6.992;2023-09-19T05:30:54;13.32;;;3.20;;
19482;SDS011;9882;51.166;6.992;2023-09-19T05:33:23;7.28;;;2.60;;
19482;SDS011;9882;51.166;6.992;2023-09-19T05:35:53;9.02;;;3.03;;
19482;SDS011;9882;51.166;6.992;2023-09-19T05:38:24;8.82;;;3.08;;
19482;SDS011;9882;51.166;6.992;2023-09-19T05:40:54;7.95;;;2.63;;
19482;SDS011;9882;51.166;6.992;2023-09-19T05:43:24;13.68;;;2.95;;
19482;SDS011;9882;51.166;6.992;2023-09-19T05:45:53;15.35;;;3.10;;
19482;SDS011;9882;51.166;6.992;2023-09-19T05:48:23;13.48;;;3.10;;
19482;SDS011;9882;51.166;6.992;2023-09-19T05:50:52;10.52;;;3.38;;
19482;SDS011;9882;51.166;6.992;2023-09-19T05:53:21;7.55;;;2.78;;
19482;SDS011;9882;51.166;6.992;2023-09-19T05:55:53;13.02;;;3.13;;
19482;SDS011;9882;51.166;6.992;2023-09-19T05:58:22;11.05;;;3.25;;
19482;SDS011;9882;51.166;6.992;2023-09-19T06:00:51;8.93;;;2.90;;
19482;SDS011;9882;51.166;6.992;2023-09-19T06:03:22;11.18;;;3.35;;
19482;SDS011;9882;51.166;6.992;2023-09-19T06:05:51;12.25;;;2.92;;
19482;SDS011;9882;51.166;6.992;2023-09-19T06:08:24;14.50;;;3.30;;
19482;SDS011;9882;51.166;6.992;2023-09-19T06:10:55;10.90;;;2.95;;
19482;SDS011;9882;51.166;6.992;2023-09-19T06:13:25;27.52;;;3.15;;
19482;SDS011;9882;51.166;6.992;2023-09-19T06:15:55;7.43;;;2.90;;
19482;SDS011;9882;51.166;6.992;2023-09-19T06:18:25;15.60;;;3.47;;
19482;SDS011;9882;51.166;6.992;2023-09-19T06:20:56;10.55;;;3.15;;
19482;SDS011;9882;51.166;6.992;2023-09-19T06:23:26;19.05;;;3.45;;
19482;SDS011;9882;51.166;6.992;2023-09-19T06:25:57;5.43;;;2.50;;
19482;SDS011;9882;51.166;6.992;2023-09-19T06:28:26;13.02;;;3.80;;
19482;SDS011;9882;51.166;6.992;2023-09-19T06:30:56;9.15;;;2.83;;
19482;SDS011;9882;51.166;6.992;2023-09-19T06:33:25;11.20;;;2.72;;
19482;SDS011;9882;51.166;6.992;2023-09-19T06:35:55;16.98;;;4.03;;
19482;SDS011;9882;51.166;6.992;2023-09-19T06:38:27;6.88;;;2.40;;
19482;SDS011;9882;51.166;6.992;2023-09-19T06:40:58;22.83;;;3.58;;
19482;SDS011;9882;51.166;6.992;2023-09-19T06:43:30;10.25;;;3.15;;
19482;SDS011;9882;51.166;6.992;2023-09-19T06:46:01;9.82;;;2.97;;
19482;SDS011;9882;51.166;6.992;2023-09-19T06:48:30;10.82;;;3.10;;
19482;SDS011;9882;51.166;6.992;2023-09-19T06:51:00;5.60;;;2.53;;
19482;SDS011;9882;51.166;6.992;2023-09-19T06:53:32;14.65;;;3.20;;
19482;SDS011;9882;51.166;6.992;2023-09-19T06:56:03;9.65;;;3.63;;
19482;SDS011;9882;51.166;6.992;2023-09-19T06:58:33;12.40;;;3.08;;
19482;SDS011;9882;51.166;6.992;2023-09-19T07:01:03;16.88;;;3.80;;
19482;SDS011;9882;51.166;6.992;2023-09-19T07:03:32;7.43;;;2.63;;
19482;SDS011;9882;51.166;6.992;2023-09-19T07:06:01;19.50;;;3.85;;
19482;SDS011;9882;51.166;6.992;2023-09-19T07:08:31;9.90;;;2.78;;
19482;SDS011;9882;51.166;6.992;2023-09-19T07:11:00;14.07;;;3.22;;
19482;SDS011;9882;51.166;6.992;2023-09-19T07:13:33;14.40;;;3.40;;
19482;SDS011;9882;51.166;6.992;2023-09-19T07:16:02;10.63;;;3.03;;
19482;SDS011;9882;51.166;6.992;2023-09-19T07:18:32;11.77;;;3.45;;
19482;SDS011;9882;51.166;6.992;2023-09-19T07:21:01;16.30;;;3.60;;
19482;SDS011;9882;51.166;6.992;2023-09-19T07:23:33;8.15;;;3.03;;
19482;SDS011;9882;51.166;6.992;2023-09-19T07:26:04;14.40;;;3.20;;
19482;SDS011;9882;51.166;6.992;2023-09-19T07:28:33;10.35;;;3.30;;
19482;SDS011;9882;51.166;6.992;2023-09-19T07:31:03;18.35;;;3.22;;
19482;SDS011;9882;51.166;6.992;2023-09-19T07:33:34;10.10;;;2.88;;
19482;SDS011;9882;51.166;6.992;2023-09-19T07:36:04;10.70;;;3.05;;
19482;SDS011;9882;51.166;6.992;2023-09-19T07:38:37;13.35;;;3.28;;
19482;SDS011;9882;51.166;6.992;2023-09-19T07:41:08;13.30;;;3.00;;
19482;SDS011;9882;51.166;6.992;2023-09-19T07:43:37;8.73;;;2.75;;
19482;SDS011;9882;51.166;6.992;2023-09-19T07:46:07;9.85;;;3.15;;
19482;SDS011;9882;51.166;6.992;2023-09-19T07:48:37;11.18;;;3.08;;
19482;SDS011;9882;51.166;6.992;2023-09-19T07:51:08;9.70;;;2.90;;
19482;SDS011;9882;51.166;6.992;2023-09-19T07:53:37;11.68;;;3.40;;
19482;SDS011;9882;51.166;6.992;2023-09-19T07:56:09;9.50;;;2.70;;
19482;SDS011;9882;51.166;6.992;2023-09-19T07:58:39;11.43;;;3.30;;
19482;SDS011;9882;51.166;6.992;2023-09-19T08:01:11;18.50;;;3.60;;
19482;SDS011;9882;51.166;6.992;2023-09-19T08:03:40;11.82;;;2.72;;
19482;SDS011;9882;51.166;6.992;2023-09-19T08:06:10;6.22;;;2.78;;
19482;SDS011;9882;51.166;6.992;2023-09-19T08:08:41;7.70;;;2.63;;
19482;SDS011;9882;51.166;6.992;2023-09-19T08:11:12;12.18;;;2.83;;
19482;SDS011;9882;51.166;6.992;2023-09-19T08:13:46;10.77;;;3.08;;
19482;SDS011;9882;51.166;6.992;2023-09-19T08:16:18;8.35;;;2.92;;
19482;SDS011;9882;51.166;6.992;2023-09-19T08:18:49;9.23;;;3.17;;
19482;SDS011;9882;51.166;6.992;2023-09-19T08:21:22;10.30;;;2.80;;
19482;SDS011;9882;51.166;6.992;2023-09-19T08:23:53;13.52;;;2.80;;
19482;SDS011;9882;51.166;6.992;2023-09-19T08:26:25;11.15;;;2.95;;
19482;SDS011;9882;51.166;6.992;2023-09-19T08:28:56;15.77;;;4.15;;
19482;SDS011;9882;51.166;6.992;2023-09-19T08:31:26;11.02;;;2.88;;
19482;SDS011;9882;51.166;6.992;2023-09-19T08:33:55;9.73;;;2.97;;
19482;SDS011;9882;51.166;6.992;2023-09-19T08:36:24;14.82;;;3.05;;
19482;SDS011;9882;51.166;6.992;2023-09-19T08:38:53;8.27;;;2.92;;
19482;SDS011;9882;51.166;6.992;2023-09-19T08:41:22;15.52;;;3.30;;
19482;SDS011;9882;51.166;6.992;2023-09-19T08:43:52;17.23;;;3.60;;
19482;SDS011;9882;51.166;6.992;2023-09-19T08:46:22;5.85;;;2.55;;
19482;SDS011;9882;51.166;6.992;2023-09-19T08:48:56;6.63;;;2.85;;
19482;SDS011;9882;51.166;6.992;2023-09-19T08:51:33;8.35;;;3.15;;
19482;SDS011;9882;51.166;6.992;2023-09-19T08:54:08;9.65;;;2.92;;
19482;SDS011;9882;51.166;6.992;2023-09-19T08:56:40;5.93;;;2.50;;
19482;SDS011;9882;51.166;6.992;2023-09-19T08:59:13;8.88;;;3.25;;
19482;SDS011;9882;51.166;6.992;2023-09-19T09:01:44;6.20;;;2.70;;
19482;SDS011;9882;51.166;6.992;2023-09-19T09:04:14;9.18;;;3.00;;
19482;SDS011;9882;51.166;6.992;2023-09-19T09:06:44;14.25;;;3.08;;
19482;SDS011;9882;51.166;6.992;2023-09-19T09:09:15;16.33;;;2.90;;
19482;SDS011;9882;51.166;6.992;2023-09-19T09:11:45;10.93;;;2.95;;
19482;SDS011;9882;51.166;6.992;2023-09-19T09:14:19;9.68;;;3.08;;
19482;SDS011;9882;51.166;6.992;2023-09-19T09:16:49;19.35;;;3.25;;
19482;SDS011;9882;51.166;6.992;2023-09-19T09:19:18;12.32;;;2.60;;
19482;SDS011;9882;51.166;6.992;2023-09-19T09:21:51;17.83;;;3.30;;
19482;SDS011;9882;51.166;6.992;2023-09-19T09:24:26;9.85;;;2.15;;
19482;SDS011;9882;51.166;6.992;2023-09-19T09:26:57;8.50;;;2.40;;
19482;SDS011;9882;51.166;6.992;2023-09-19T09:29:42;11.90;;;3.03;;
19482;SDS011;9882;51.166;6.992;2023-09-19T09:32:17;7.05;;;2.70;;
19482;SDS011;9882;51.166;6.992;2023-09-19T09:34:52;11.07;;;2.83;;
19482;SDS011;9882;51.166;6.992;2023-09-19T09:37:24;12.13;;;3.30;;
19482;SDS011;9882;51.166;6.992;2023-09-19T09:39:58;8.38;;;2.88;;
19482;SDS011;9882;51.166;6.992;2023-09-19T09:42:46;7.07;;;2.58;;
19482;SDS011;9882;51.166;6.992;2023-09-19T09:45:21;6.45;;;2.10;;
19482;SDS011;9882;51.166;6.992;2023-09-19T09:47:56;21.52;;;3.72;;
19482;SDS011;9882;51.166;6.992;2023-09-19T09:50:24;13.55;;;3.00;;
19482;SDS011;9882;51.166;6.992;2023-09-19T09:53:19;12.32;;;3.65;;
19482;SDS011;9882;51.166;6.992;2023-09-19T09:55:59;10.73;;;2.83;;
19482;SDS011;9882;51.166;6.992;2023-09-19T09:58:30;15.68;;;2.92;;
19482;SDS011;9882;51.166;6.992;2023-09-19T10:01:00;7.47;;;2.55;;
19482;SDS011;9882;51.166;6.992;2023-09-19T10:03:36;8.38;;;3.00;;
19482;SDS011;9882;51.166;6.992;2023-09-19T10:06:12;5.70;;;2.30;;
19482;SDS011;9882;51.166;6.992;2023-09-19T10:09:01;10.13;;;2.55;;
19482;SDS011;9882;51.166;6.992;2023-09-19T10:11:44;14.77;;;2.67;;
19482;SDS011;9882;51.166;6.992;2023-09-19T10:14:15;9.77;;;2.95;;
19482;SDS011;9882;51.166;6.992;2023-09-19T10:16:49;6.10;;;2.47;;
19482;SDS011;9882;51.166;6.992;2023-09-19T10:19:21;10.23;;;2.53;;
19482;SDS011;9882;51.166;6.992;2023-09-19T10:21:57;7.20;;;2.30;;
19482;SDS011;9882;51.166;6.992;2023-09-19T10:24:28;14.20;;;2.85;;
19482;SDS011;9882;51.166;6.992;2023-09-19T10:27:01;10.85;;;2.55;;
19482;SDS011;9882;51.166;6.992;2023-09-19T10:29:32;15.02;;;2.85;;
19482;SDS011;9882;51.166;6.992;2023-09-19T10:32:04;11.38;;;2.92;;
19482;SDS011;9882;51.166;6.992;2023-09-19T10:34:36;11.25;;;2.80;;
19482;SDS011;9882;51.166;6.992;2023-09-19T10:37:08;13.05;;;2.90;;
19482;SDS011;9882;51.166;6.992;2023-09-19T10:39:40;17.60;;;3.13;;
19482;SDS011;9882;51.166;6.992;2023-09-19T10:42:14;6.18;;;2.20;;
19482;SDS011;9882;51.166;6.992;2023-09-19T10:44:48;8.85;;;2.65;;
19482;SDS011;9882;51.166;6.992;2023-09-19T10:47:23;14.23;;;2.72;;
19482;SDS011;9882;51.166;6.992;2023-09-19T10:49:52;11.93;;;2.95;;
19482;SDS011;9882;51.166;6.992;2023-09-19T10:52:22;6.28;;;2.45;;
19482;SDS011;9882;51.166;6.992;2023-09-19T10:58:03;18.65;;;2.58;;
19482;SDS011;9882;51.166;6.992;2023-09-19T11:00:50;18.50;;;2.83;;
19482;SDS011;9882;51.166;6.992;2023-09-19T11:03:23;8.20;;;2.63;;
19482;SDS011;9882;51.166;6.992;2023-09-19T11:06:04;4.28;;;2.17;;
19482;SDS011;9882;51.166;6.992;2023-09-19T11:08:56;5.57;;;2.50;;
19482;SDS011;9882;51.166;6.992;2023-09-19T11:11:48;6.07;;;2.65;;
19482;SDS011;9882;51.166;6.992;2023-09-19T11:14:30;12.25;;;2.92;;
19482;SDS011;9882;51.166;6.992;2023-09-19T11:17:29;13.18;;;2.33;;
19482;SDS011;9882;51.166;6.992;2023-09-19T11:20:22;6.50;;;2.40;;
19482;SDS011;9882;51.166;6.992;2023-09-19T11:23:18;10.40;;;2.88;;
19482;SDS011;9882;51.166;6.992;2023-09-19T11:25:53;12.75;;;2.70;;
19482;SDS011;9882;51.166;6.992;2023-09-19T11:28:34;6.60;;;2.60;;
19482;SDS011;9882;51.166;6.992;2023-09-19T11:34:38;6.32;;;2.05;;
19482;SDS011;9882;51.166;6.992;2023-09-19T11:40:41;10.23;;;3.05;;
19482;SDS011;9882;51.166;6.992;2023-09-19T11:43:28;11.13;;;2.95;;
19482;SDS011;9882;51.166;6.992;2023-09-19T11:46:07;4.55;;;2.65;;
19482;SDS011;9882;51.166;6.992;2023-09-19T11:48:38;6.22;;;2.42;;
19482;SDS011;9882;51.166;6.992;2023-09-19T11:51:17;7.50;;;2.97;;
19482;SDS011;9882;51.166;6.992;2023-09-19T11:53:55;8.50;;;3.10;;
19482;SDS011;9882;51.166;6.992;2023-09-19T11:56:28;5.30;;;2.65;;
19482;SDS011;9882;51.166;6.992;2023-09-19T11:58:59;12.68;;;2.72;;
19482;SDS011;9882;51.166;6.992;2023-09-19T12:01:30;6.63;;;1.95;;
19482;SDS011;9882;51.166;6.992;2023-09-19T12:04:01;8.13;;;2.42;;
19482;SDS011;9882;51.166;6.992;2023-09-19T12:06:32;8.02;;;2.53;;
19482;SDS011;9882;51.166;6.992;2023-09-19T12:09:01;8.40;;;2.45;;
19482;SDS011;9882;51.166;6.992;2023-09-19T12:11:48;8.73;;;2.80;;
19482;SDS011;9882;51.166;6.992;2023-09-19T12:14:22;8.82;;;2.55;;
19482;SDS011;9882;51.166;6.992;2023-09-19T12:16:54;8.60;;;2.63;;
19482;SDS011;9882;51.166;6.992;2023-09-19T12:19:28;7.00;;;2.33;;
19482;SDS011;9882;51.166;6.992;2023-09-19T12:21:58;6.30;;;2.30;;
19482;SDS011;9882;51.166;6.992;2023-09-19T12:24:34;8.02;;;2.40;;
19482;SDS011;9882;51.166;6.992;2023-09-19T12:27:07;6.22;;;2.35;;
19482;SDS011;9882;51.166;6.992;2023-09-19T12:29:43;10.98;;;2.45;;
19482;SDS011;9882;51.166;6.992;2023-09-19T12:32:15;9.25;;;2.67;;
19482;SDS011;9882;51.166;6.992;2023-09-19T12:34:51;5.45;;;2.00;;
19482;SDS011;9882;51.166;6.992;2023-09-19T12:37:22;9.48;;;2.63;;
19482;SDS011;9882;51.166;6.992;2023-09-19T12:40:03;17.73;;;2.58;;
19482;SDS011;9882;51.166;6.992;2023-09-19T12:42:44;8.95;;;2.65;;
19482;SDS011;9882;51.166;6.992;2023-09-19T12:45:15;7.43;;;2.03;;
19482;SDS011;9882;51.166;6.992;2023-09-19T12:51:01;12.93;;;2.50;;
19482;SDS011;9882;51.166;6.992;2023-09-19T12:53:33;4.82;;;2.00;;
19482;SDS011;9882;51.166;6.992;2023-09-19T12:56:08;9.50;;;2.22;;
19482;SDS011;9882;51.166;6.992;2023-09-19T12:58:49;7.70;;;2.53;;
19482;SDS011;9882;51.166;6.992;2023-09-19T13:01:21;6.70;;;2.00;;
19482;SDS011;9882;51.166;6.992;2023-09-19T13:04:16;3.42;;;1.70;;
19482;SDS011;9882;51.166;6.992;2023-09-19T13:06:53;9.82;;;1.83;;
19482;SDS011;9882;51.166;6.992;2023-09-19T13:09:28;5.25;;;2.13;;
19482;SDS011;9882;51.166;6.992;2023-09-19T13:12:02;7.25;;;1.88;;
19482;SDS011;9882;51.166;6.992;2023-09-19T13:14:37;7.03;;;1.85;;
19482;SDS011;9882;51.166;6.992;2023-09-19T13:17:18;5.80;;;2.08;;
19482;SDS011;9882;51.166;6.992;2023-09-19T13:19:47;8.30;;;2.42;;
19482;SDS011;9882;51.166;6.992;2023-09-19T13:22:39;3.88;;;1.83;;
19482;SDS011;9882;51.166;6.992;2023-09-19T13:25:08;4.78;;;1.90;;
19482;SDS011;9882;51.166;6.992;2023-09-19T13:27:41;8.77;;;2.08;;
19482;SDS011;9882;51.166;6.992;2023-09-19T13:30:13;6.82;;;2.10;;
19482;SDS011;9882;51.166;6.992;2023-09-19T13:32:42;4.72;;;2.20;;
19482;SDS011;9882;51.166;6.992;2023-09-19T13:35:13;2.30;;;1.40;;
19482;SDS011;9882;51.166;6.992;2023-09-19T13:37:42;2.95;;;1.45;;
19482;SDS011;9882;51.166;6.992;2023-09-19T13:40:13;8.73;;;2.05;;
19482;SDS011;9882;51.166;6.992;2023-09-19T13:42:43;4.35;;;1.80;;
19482;SDS011;9882;51.166;6.992;2023-09-19T13:45:13;4.50;;;1.80;;
19482;SDS011;9882;51.166;6.992;2023-09-19T13:47:44;2.25;;;1.45;;
19482;SDS011;9882;51.166;6.992;2023-09-19T13:50:12;2.53;;;1.50;;
19482;SDS011;9882;51.166;6.992;2023-09-19T13:52:41;2.78;;;1.33;;
19482;SDS011;9882;51.166;6.992;2023-09-19T13:55:10;2.45;;;1.58;;
19482;SDS011;9882;51.166;6.992;2023-09-19T13:57:42;2.78;;;1.42;;
19482;SDS011;9882;51.166;6.992;2023-09-19T14:00:11;12.77;;;1.63;;
19482;SDS011;9882;51.166;6.992;2023-09-19T14:02:43;4.28;;;1.70;;
19482;SDS011;9882;51.166;6.992;2023-09-19T14:05:13;9.07;;;1.77;;
19482;SDS011;9882;51.166;6.992;2023-09-19T14:07:42;2.08;;;1.60;;
19482;SDS011;9882;51.166;6.992;2023-09-19T14:10:10;2.85;;;1.70;;
19482;SDS011;9882;51.166;6.992;2023-09-19T14:12:39;3.38;;;1.55;;
19482;SDS011;9882;51.166;6.992;2023-09-19T14:15:08;5.80;;;1.55;;
19482;SDS011;9882;51.166;6.992;2023-09-19T14:17:39;8.63;;;1.83;;
19482;SDS011;9882;51.166;6.992;2023-09-19T14:20:09;1.63;;;1.38;;
19482;SDS011;9882;51.166;6.992;2023-09-19T14:22:38;4.57;;;1.77;;
19482;SDS011;9882;51.166;6.992;2023-09-19T14:25:07;2.78;;;1.40;;
19482;SDS011;9882;51.166;6.992;2023-09-19T14:27:36;2.58;;;1.70;;
19482;SDS011;9882;51.166;6.992;2023-09-19T14:30:05;4.05;;;1.92;;
19482;SDS011;9882;51.166;6.992;2023-09-19T14:32:34;6.50;;;1.73;;
19482;SDS011;9882;51.166;6.992;2023-09-19T14:35:05;3.80;;;1.52;;
19482;SDS011;9882;51.166;6.992;2023-09-19T14:37:36;1.85;;;1.42;;
19482;SDS011;9882;51.166;6.992;2023-09-19T14:40:07;3.53;;;1.48;;
19482;SDS011;9882;51.166;6.992;2023-09-19T14:42:38;3.55;;;1.55;;
19482;SDS011;9882;51.166;6.992;2023-09-19T14:45:07;3.08;;;1.60;;
19482;SDS011;9882;51.166;6.992;2023-09-19T14:47:38;4.93;;;1.40;;
19482;SDS011;9882;51.166;6.992;2023-09-19T14:50:08;6.80;;;1.33;;
19482;SDS011;9882;51.166;6.992;2023-09-19T14:52:39;4.63;;;1.83;;
19482;SDS011;9882;51.166;6.992;2023-09-19T14:55:07;2.10;;;1.23;;
19482;SDS011;9882;51.166;6.992;2023-09-19T14:57:41;5.90;;;1.42;;
19482;SDS011;9882;51.166;6.992;2023-09-19T15:00:12;6.20;;;1.80;;
19482;SDS011;9882;51.166;6.992;2023-09-19T15:02:41;1.98;;;1.48;;
19482;SDS011;9882;51.166;6.992;2023-09-19T15:05:13;5.20;;;1.52;;
19482;SDS011;9882;51.166;6.992;2023-09-19T15:07:44;1.20;;;1.10;;
19482;SDS011;9882;51.166;6.992;2023-09-19T15:10:12;2.60;;;1.48;;
19482;SDS011;9882;51.166;6.992;2023-09-19T15:12:41;5.28;;;1.50;;
19482;SDS011;9882;51.166;6.992;2023-09-19T15:15:10;1.48;;;1.30;;
19482;SDS011;9882;51.166;6.992;2023-09-19T15:17:39;17.40;;;2.03;;
19482;SDS011;9882;51.166;6.992;2023-09-19T15:20:08;5.03;;;1.70;;
19482;SDS011;9882;51.166;6.992;2023-09-19T15:22:42;3.22;;;1.40;;
19482;SDS011;9882;51.166;6.992;2023-09-19T15:25:11;5.10;;;1.67;;
19482;SDS011;9882;51.166;6.992;2023-09-19T15:27:39;5.15;;;1.40;;
19482;SDS011;9882;51.166;6.992;2023-09-19T15:30:09;5.25;;;1.70;;
19482;SDS011;9882;51.166;6.992;2023-09-19T15:32:37;4.78;;;1.85;;
19482;SDS011;9882;51.166;6.992;2023-09-19T15:35:07;2.30;;;1.40;;
19482;SDS011;9882;51.166;6.992;2023-09-19T15:37:39;13.00;;;1.95;;
19482;SDS011;9882;51.166;6.992;2023-09-19T15:40:09;12.15;;;1.73;;
19482;SDS011;9882;51.166;6.992;2023-09-19T15:42:39;1.58;;;1.13;;